Time;durP1;ratioP1;P1;durP2;ratioP2;P2;SDS_P1;SDS_P2;PMS_P1;PMS_P2;Temp;Humidity;BMP_temperature;BMP_pressure;BME280_temperature;BME280_humidity;BME280_pressure;Samples;Min_cycle;Max_cycle;Signal;HPM_P1;HPM_P2
2022/07/27 00:01:06;;;;;;;;;;;;;;;20.23;74.30;98636.53;4717036;30;20367;-78
2022/07/27 00:03:34;;;;;;;;;;;;;;;20.18;74.57;98636.69;4715924;30;19937;-79
2022/07/27 00:06:01;;;;;;;;;;;;;;;20.13;74.88;98634.88;4715599;30;19969;-79
2022/07/27 00:08:28;;;;;;;;;;;;;;;20.14;74.72;98635.69;4717013;30;19958;-79
2022/07/27 00:10:55;;;;;;;;;;;;;;;20.09;74.83;98628.41;4716973;30;19934;-78
2022/07/27 00:13:22;;;;;;;;;;;;;;;20.08;74.87;98636.97;4716745;30;20414;-79
2022/07/27 00:15:49;;;;;;;;;;;;;;;20.07;74.89;98635.34;4717030;30;20020;-79
2022/07/27 00:18:16;;;;;;;;;;;;;;;20.08;75.09;98637.78;4716864;30;19958;-79
2022/07/27 00:20:43;;;;;;;;;;;;;;;20.08;75.33;98643.25;4716071;30;19934;-78
2022/07/27 00:23:11;;;;;;;;;;;;;;;20.12;75.11;98637.94;4717056;30;20016;-78
2022/07/27 00:25:38;;;;;;;;;;;;;;;20.16;75.02;98641.66;4717357;30;19930;-80
2022/07/27 00:28:05;;;;;;;;;;;;;;;20.13;75.42;98650.53;4716377;30;20427;-78
2022/07/27 00:30:31;;;;;;;;;;;;;;;20.10;75.70;98641.00;4716540;30;19930;-78
2022/07/27 00:32:59;;;;;;;;;;;;;;;20.06;75.96;98639.22;4716254;30;20036;-78
2022/07/27 00:35:26;;;;;;;;;;;;;;;20.02;76.00;98632.75;4716051;30;19934;-79
2022/07/27 00:37:53;;;;;;;;;;;;;;;20.01;76.02;98639.34;4716697;30;19937;-79
2022/07/27 00:40:20;;;;;;;;;;;;;;;20.02;76.01;98649.16;4732130;30;19934;-79
2022/07/27 00:42:47;;;;;;;;;;;;;;;20.03;75.72;98642.59;4732137;30;20398;-79
2022/07/27 00:45:13;;;;;;;;;;;;;;;20.05;75.80;98643.06;4731926;30;19930;-79
2022/07/27 00:47:40;;;;;;;;;;;;;;;20.03;75.59;98653.53;4733714;30;19966;-79
2022/07/27 00:50:07;;;;;;;;;;;;;;;19.98;76.21;98643.53;4733131;30;20322;-80
2022/07/27 00:52:35;;;;;;;;;;;;;;;20.03;77.35;98634.38;4732863;30;19931;-79
2022/07/27 00:55:02;;;;;;;;;;;;;;;20.05;77.26;98643.88;4731844;30;20376;-79
2022/07/27 00:57:29;;;;;;;;;;;;;;;20.02;77.03;98660.13;4732065;30;19930;-80
2022/07/27 00:59:56;;;;;;;;;;;;;;;20.00;76.94;98663.16;4733111;30;19930;-77
2022/07/27 01:02:25;;;;;;;;;;;;;;;19.97;76.89;98663.00;4731767;30;20346;-79
2022/07/27 01:04:52;;;;;;;;;;;;;;;19.92;77.11;98662.00;4732731;30;20358;-80
2022/07/27 01:07:22;;;;;;;;;;;;;;;19.88;76.90;98655.56;4718088;30;19937;-81
2022/07/27 01:09:57;;;;;;;;;;;;;;;19.86;76.90;98655.06;4731695;30;19930;-80
2022/07/27 01:12:25;;;;;;;;;;;;;;;19.87;76.96;98662.13;4733012;30;19937;-79
2022/07/27 01:14:52;;;;;;;;;;;;;;;19.87;77.06;98653.94;4717176;30;19937;-79
2022/07/27 01:17:19;;;;;;;;;;;;;;;19.82;77.21;98658.72;4731252;30;19970;-80
2022/07/27 01:19:47;;;;;;;;;;;;;;;19.80;77.47;98663.72;4732942;30;20434;-79
2022/07/27 01:22:14;;;;;;;;;;;;;;;19.78;77.58;98666.78;4733005;30;20032;-80
2022/07/27 01:24:41;;;;;;;;;;;;;;;19.70;77.79;98662.06;4732613;30;20401;-79
2022/07/27 01:27:08;;;;;;;;;;;;;;;19.64;78.00;98668.75;4732531;30;20014;-79
2022/07/27 01:29:35;;;;;;;;;;;;;;;19.63;78.18;98667.13;4732960;30;19934;-79
2022/07/27 01:32:02;;;;;;;;;;;;;;;19.64;78.18;98666.81;4732360;30;20247;-79
2022/07/27 01:34:32;;;;;;;;;;;;;;;19.68;78.15;98662.38;4731751;30;19933;-80
2022/07/27 01:37:00;;;;;;;;;;;;;;;19.69;78.09;98657.69;4732744;30;19934;-78
2022/07/27 01:39:27;;;;;;;;;;;;;;;19.72;78.26;98662.53;4734055;30;19934;-80
2022/07/27 01:41:54;;;;;;;;;;;;;;;19.78;78.50;98668.72;4736406;30;19980;-79
2022/07/27 01:44:21;;;;;;;;;;;;;;;19.83;78.25;98668.59;4736066;30;19934;-80
2022/07/27 01:46:48;;;;;;;;;;;;;;;19.83;78.30;98666.66;4736302;30;20476;-78
2022/07/27 01:49:16;;;;;;;;;;;;;;;19.88;78.33;98669.25;4736299;30;19930;-79
2022/07/27 01:51:43;;;;;;;;;;;;;;;19.93;78.24;98673.78;4740355;30;19930;-78
2022/07/27 01:54:10;;;;;;;;;;;;;;;19.93;78.35;98679.28;4747622;30;19930;-79
2022/07/27 01:56:38;;;;;;;;;;;;;;;19.92;78.44;98674.91;4739720;30;20464;-78
2022/07/27 01:59:05;;;;;;;;;;;;;;;19.90;78.63;98675.22;4736118;30;20041;-79
2022/07/27 02:01:32;;;;;;;;;;;;;;;19.89;78.58;98673.59;4736021;30;20036;-79
2022/07/27 02:03:59;;;;;;;;;;;;;;;19.90;78.46;98675.22;4736094;30;19930;-79
2022/07/27 02:06:26;;;;;;;;;;;;;;;19.94;78.26;98674.59;4736309;30;19931;-80
2022/07/27 02:08:53;;;;;;;;;;;;;;;19.96;78.39;98680.56;4736214;30;20029;-79
2022/07/27 02:14:07;;;;;;;;;;;;;;;20.08;77.99;98678.06;4734661;30;19934;-80
2022/07/27 02:16:34;;;;;;;;;;;;;;;20.09;78.14;98677.72;4735641;30;19930;-79
2022/07/27 02:19:02;;;;;;;;;;;;;;;20.12;77.95;98682.56;4735413;30;20443;-79
2022/07/27 02:21:30;;;;;;;;;;;;;;;20.17;77.67;98678.88;4735874;30;20387;-80
2022/07/27 02:23:57;;;;;;;;;;;;;;;20.20;77.73;98686.47;4734647;30;19981;-80
2022/07/27 02:26:24;;;;;;;;;;;;;;;20.21;77.72;98685.38;4734551;30;19988;-79
2022/07/27 02:28:51;;;;;;;;;;;;;;;20.23;77.56;98688.59;4734650;30;20411;-81
2022/07/27 02:31:18;;;;;;;;;;;;;;;20.24;77.79;98689.41;4735499;30;20471;-79
2022/07/27 02:33:45;;;;;;;;;;;;;;;20.27;77.55;98681.34;4735517;30;19934;-78
2022/07/27 02:36:12;;;;;;;;;;;;;;;20.32;77.44;98677.66;4734969;30;20032;-79
2022/07/27 02:38:39;;;;;;;;;;;;;;;20.39;77.12;98685.44;4735413;30;20465;-79
2022/07/27 02:41:08;;;;;;;;;;;;;;;20.41;76.94;98688.63;4733985;30;20331;-80
2022/07/27 02:43:35;;;;;;;;;;;;;;;20.42;76.96;98690.28;4719196;30;19930;-80
2022/07/27 02:46:02;;;;;;;;;;;;;;;20.42;76.69;98693.00;4734993;30;19935;-79
2022/07/27 02:48:30;;;;;;;;;;;;;;;20.44;76.95;98688.84;4735158;30;19942;-79
2022/07/27 02:51:00;;;;;;;;;;;;;;;20.46;77.00;98691.25;4734417;30;20414;-79
2022/07/27 02:53:28;;;;;;;;;;;;;;;20.50;76.69;98692.22;4735254;30;19946;-79
2022/07/27 02:55:55;;;;;;;;;;;;;;;20.55;76.75;98689.38;4733622;30;19930;-79
2022/07/27 02:58:22;;;;;;;;;;;;;;;20.62;76.64;98691.66;4734566;30;19957;-79
2022/07/27 03:00:49;;;;;;;;;;;;;;;20.72;76.63;98694.09;4733647;30;19986;-79
2022/07/27 03:03:23;;;;;;;;;;;;;;;20.80;76.00;98695.25;4734876;30;19988;-80
2022/07/27 03:06:06;;;;;;;;;;;;;;;20.82;76.09;98693.81;4734368;30;19941;-79
2022/07/27 03:08:34;;;;;;;;;;;;;;;20.87;76.12;98690.09;4734934;30;19930;-80
2022/07/27 03:11:01;;;;;;;;;;;;;;;20.89;75.82;98687.81;4733148;30;19931;-80
2022/07/27 03:13:28;;;;;;;;;;;;;;;20.92;75.90;98688.00;4734311;30;19934;-79
2022/07/27 03:15:55;;;;;;;;;;;;;;;21.00;75.74;98684.47;4734726;30;19988;-79
2022/07/27 03:18:22;;;;;;;;;;;;;;;21.08;75.47;98693.84;4734060;30;19934;-79
2022/07/27 03:20:49;;;;;;;;;;;;;;;21.15;75.44;98698.84;4732769;30;20383;-79
2022/07/27 03:23:16;;;;;;;;;;;;;;;21.25;75.25;98700.47;4734852;30;20030;-80
2022/07/27 03:25:43;;;;;;;;;;;;;;;21.26;75.87;98686.41;4729735;30;20411;-80
2022/07/27 03:28:10;;;;;;;;;;;;;;;21.38;75.41;98699.50;4717468;30;19938;-79
2022/07/27 03:30:37;;;;;;;;;;;;;;;21.47;75.07;98694.03;4717795;30;19930;-79
2022/07/27 03:33:04;;;;;;;;;;;;;;;21.54;75.33;98691.59;4717392;30;19947;-79
2022/07/27 03:35:31;;;;;;;;;;;;;;;21.59;75.18;98689.50;4717497;30;19930;-82
2022/07/27 03:37:58;;;;;;;;;;;;;;;21.64;75.06;98692.06;4716381;30;20375;-79
2022/07/27 03:40:28;;;;;;;;;;;;;;;21.78;74.96;98696.59;4717482;30;19969;-82
2022/07/27 03:42:55;;;;;;;;;;;;;;;21.90;74.72;98693.94;4715632;30;19930;-80
2022/07/27 03:45:22;;;;;;;;;;;;;;;22.04;74.39;98694.56;4716609;30;19931;-80
2022/07/27 03:47:49;;;;;;;;;;;;;;;22.13;73.90;98700.06;4715530;30;19937;-80
2022/07/27 03:50:16;;;;;;;;;;;;;;;22.14;73.91;98706.34;4716877;30;19930;-80
2022/07/27 03:52:43;;;;;;;;;;;;;;;22.20;73.35;98696.81;4717067;30;20006;-80
2022/07/27 03:55:11;;;;;;;;;;;;;;;22.26;73.64;98690.00;4716988;30;20004;-80
2022/07/27 03:57:38;;;;;;;;;;;;;;;22.36;73.67;98695.16;4715577;30;19980;-81
2022/07/27 04:00:07;;;;;;;;;;;;;;;22.48;72.85;98698.00;4716272;30;19931;-81
2022/07/27 04:02:34;;;;;;;;;;;;;;;22.65;72.66;98701.78;4716011;30;20423;-80
2022/07/27 04:05:02;;;;;;;;;;;;;;;22.79;72.20;98707.88;4713823;30;20024;-80
2022/07/27 04:07:28;;;;;;;;;;;;;;;22.86;71.96;98699.06;4716556;30;19981;-81
2022/07/27 04:09:55;;;;;;;;;;;;;;;22.90;71.69;98709.09;4716444;30;20044;-80
2022/07/27 04:12:22;;;;;;;;;;;;;;;22.86;71.37;98708.13;4716039;30;19998;-79
2022/07/27 04:14:50;;;;;;;;;;;;;;;22.82;71.13;98720.94;4716258;30;20017;-79
2022/07/27 04:17:17;;;;;;;;;;;;;;;22.79;70.98;98712.53;4715163;30;20395;-80
2022/07/27 04:20:04;;;;;;;;;;;;;;;22.85;71.07;98712.03;4716217;30;19935;-81
2022/07/27 04:22:31;;;;;;;;;;;;;;;22.89;71.05;98713.00;4716856;30;20037;-80
2022/07/27 04:24:57;;;;;;;;;;;;;;;23.02;70.77;98710.34;4716767;30;20183;-83
2022/07/27 04:27:24;;;;;;;;;;;;;;;23.10;70.19;98717.75;4716912;30;19931;-80
2022/07/27 04:29:52;;;;;;;;;;;;;;;23.10;69.87;98714.97;4716775;30;20463;-80
2022/07/27 04:32:18;;;;;;;;;;;;;;;23.13;69.79;98720.63;4715606;30;20046;-78
2022/07/27 04:34:46;;;;;;;;;;;;;;;23.24;69.30;98718.25;4716409;30;19930;-79
2022/07/27 04:37:13;;;;;;;;;;;;;;;23.39;69.29;98721.56;4716182;30;19942;-79
2022/07/27 04:39:40;;;;;;;;;;;;;;;23.47;69.16;98718.75;4716011;30;20276;-80
2022/07/27 04:42:07;;;;;;;;;;;;;;;23.55;68.72;98728.09;4714623;30;19935;-80
2022/07/27 04:44:34;;;;;;;;;;;;;;;23.64;68.35;98726.03;4716045;30;19985;-81
2022/07/27 04:47:01;;;;;;;;;;;;;;;23.64;67.72;98725.25;4715922;30;19938;-79
2022/07/27 04:49:28;;;;;;;;;;;;;;;23.54;67.70;98723.69;4715982;30;19977;-82
2022/07/27 04:51:55;;;;;;;;;;;;;;;23.61;67.82;98723.16;4715762;30;19934;-79
2022/07/27 04:54:22;;;;;;;;;;;;;;;23.71;67.63;98720.00;4713515;30;19938;-80
2022/07/27 04:56:49;;;;;;;;;;;;;;;23.77;67.16;98726.91;4698846;30;19931;-81
2022/07/27 04:59:16;;;;;;;;;;;;;;;23.85;67.39;98725.22;4698517;30;19931;-81
2022/07/27 05:01:43;;;;;;;;;;;;;;;23.89;66.65;98726.16;4698498;30;19931;-81
2022/07/27 05:04:10;;;;;;;;;;;;;;;23.94;66.59;98725.94;4698500;30;19962;-82
2022/07/27 05:06:37;;;;;;;;;;;;;;;24.03;66.07;98726.69;4697482;30;19931;-80
2022/07/27 05:09:04;;;;;;;;;;;;;;;24.10;66.27;98721.38;4698265;30;20297;-82
2022/07/27 05:11:36;;;;;;;;;;;;;;;24.08;65.99;98723.72;4698271;30;19982;-81
2022/07/27 05:14:03;;;;;;;;;;;;;;;24.18;65.86;98722.44;4682377;30;19934;-81
2022/07/27 05:16:30;;;;;;;;;;;;;;;24.22;65.50;98728.88;4698499;30;19931;-81
2022/07/27 05:18:57;;;;;;;;;;;;;;;24.38;65.35;98726.25;4698337;30;20028;-81
2022/07/27 05:21:24;;;;;;;;;;;;;;;24.52;64.92;98732.28;4696766;30;20407;-80
2022/07/27 05:23:51;;;;;;;;;;;;;;;24.63;64.38;98727.91;4700129;30;20033;-79
2022/07/27 05:26:18;;;;;;;;;;;;;;;24.74;64.05;98727.47;4715482;30;19930;-81
2022/07/27 05:28:45;;;;;;;;;;;;;;;24.79;63.88;98721.75;4715653;30;19931;-80
2022/07/27 05:31:12;;;;;;;;;;;;;;;24.86;63.92;98719.19;4715623;30;19930;-80
2022/07/27 05:33:39;;;;;;;;;;;;;;;24.96;63.64;98712.38;4715911;30;19973;-81
2022/07/27 05:36:13;;;;;;;;;;;;;;;25.14;63.10;98719.25;4715751;30;19966;-81
2022/07/27 05:38:40;;;;;;;;;;;;;;;25.31;62.72;98712.69;4715812;30;20021;-80
2022/07/27 05:41:08;;;;;;;;;;;;;;;25.43;62.44;98720.16;4715537;30;19989;-80
2022/07/27 05:43:35;;;;;;;;;;;;;;;25.37;62.32;98719.59;4715661;30;20315;-80
2022/07/27 05:46:02;;;;;;;;;;;;;;;25.42;62.07;98713.00;4700194;30;20006;-80
2022/07/27 05:48:29;;;;;;;;;;;;;;;25.57;61.78;98714.22;4716195;30;19931;-79
2022/07/27 05:50:55;;;;;;;;;;;;;;;25.67;61.16;98714.50;4715649;30;19937;-80
2022/07/27 05:53:22;;;;;;;;;;;;;;;25.74;61.04;98720.25;4714158;30;20358;-80
2022/07/27 05:55:51;;;;;;;;;;;;;;;25.86;60.42;98722.19;4715463;30;19961;-81
2022/07/27 05:58:28;;;;;;;;;;;;;;;25.94;59.56;98718.44;4715354;30;19930;-79
2022/07/27 06:00:55;;;;;;;;;;;;;;;26.08;59.03;98712.50;4699951;30;20319;-81
2022/07/27 06:03:22;;;;;;;;;;;;;;;26.23;59.03;98712.84;4715212;30;19930;-82
2022/07/27 06:05:49;;;;;;;;;;;;;;;26.22;58.05;98720.34;4715249;30;20041;-81
2022/07/27 06:08:16;;;;;;;;;;;;;;;26.32;58.28;98713.50;4715439;30;19930;-81
2022/07/27 06:10:43;;;;;;;;;;;;;;;26.45;58.22;98711.44;4715278;30;19938;-81
2022/07/27 06:13:10;;;;;;;;;;;;;;;26.59;58.32;98709.88;4715014;30;19931;-80
2022/07/27 06:15:39;;;;;;;;;;;;;;;26.73;57.60;98709.38;4714081;30;19930;-81
2022/07/27 06:18:16;;;;;;;;;;;;;;;26.84;57.40;98703.31;4715073;30;19962;-81
2022/07/27 06:20:46;;;;;;;;;;;;;;;26.94;57.09;98714.66;4715353;30;20383;-81
2022/07/27 06:23:13;;;;;;;;;;;;;;;27.05;56.68;98716.84;4715332;30;19931;-80
2022/07/27 06:25:40;;;;;;;;;;;;;;;27.08;56.65;98713.34;4715488;30;19970;-80
2022/07/27 06:28:08;;;;;;;;;;;;;;;27.07;56.43;98715.31;4718171;30;20179;-81
2022/07/27 06:30:34;;;;;;;;;;;;;;;27.18;55.95;98710.03;4718724;30;20348;-81
2022/07/27 06:33:05;;;;;;;;;;;;;;;27.22;55.85;98708.97;4718546;30;20033;-80
2022/07/27 06:35:32;;;;;;;;;;;;;;;27.20;55.50;98714.06;4717474;30;20307;-82
2022/07/27 06:37:59;;;;;;;;;;;;;;;27.07;55.42;98715.31;4718418;30;20017;-81
2022/07/27 06:40:26;;;;;;;;;;;;;;;27.03;55.51;98725.50;4717970;30;19965;-82
2022/07/27 06:42:55;;;;;;;;;;;;;;;27.15;55.40;98724.59;4718539;30;19930;-80
2022/07/27 06:45:22;;;;;;;;;;;;;;;27.21;54.87;98723.97;4718441;30;19999;-81
2022/07/27 06:47:50;;;;;;;;;;;;;;;27.29;54.20;98718.56;4717289;30;19938;-81
2022/07/27 06:50:17;;;;;;;;;;;;;;;27.49;54.20;98733.25;4718021;30;19931;-82
2022/07/27 06:52:44;;;;;;;;;;;;;;;27.54;53.95;98733.75;4717178;30;20026;-81
2022/07/27 06:55:12;;;;;;;;;;;;;;;27.54;54.15;98730.19;4718429;30;19937;-80
2022/07/27 06:57:39;;;;;;;;;;;;;;;27.67;53.71;98728.88;4718545;30;19974;-81
2022/07/27 07:00:06;;;;;;;;;;;;;;;27.86;53.29;98730.88;4717810;30;20459;-81
2022/07/27 07:02:33;;;;;;;;;;;;;;;27.89;53.20;98735.69;4718059;30;20017;-81
2022/07/27 07:04:59;;;;;;;;;;;;;;;28.04;52.93;98737.56;4717818;30;19941;-81
2022/07/27 07:07:27;;;;;;;;;;;;;;;28.19;52.39;98732.28;4717743;30;20292;-82
2022/07/27 07:09:53;;;;;;;;;;;;;;;28.24;52.02;98738.31;4717932;30;20025;-81
2022/07/27 07:12:20;;;;;;;;;;;;;;;28.24;52.19;98735.53;4717931;30;20025;-80
2022/07/27 07:14:47;;;;;;;;;;;;;;;28.38;51.47;98737.75;4716699;30;19965;-82
2022/07/27 07:17:14;;;;;;;;;;;;;;;28.49;51.46;98740.75;4717593;30;19945;-81
2022/07/27 07:19:42;;;;;;;;;;;;;;;28.63;51.07;98743.75;4718235;30;19938;-81
2022/07/27 07:22:08;;;;;;;;;;;;;;;28.72;50.95;98743.53;4717676;30;19930;-81
2022/07/27 07:24:35;;;;;;;;;;;;;;;28.68;50.06;98740.66;4717644;30;19930;-82
2022/07/27 07:27:02;;;;;;;;;;;;;;;28.78;49.49;98747.56;4716490;30;19931;-80
2022/07/27 07:29:29;;;;;;;;;;;;;;;28.89;49.66;98747.72;4718166;30;19931;-81
2022/07/27 07:31:56;;;;;;;;;;;;;;;28.92;48.87;98744.22;4717809;30;20426;-81
2022/07/27 07:34:23;;;;;;;;;;;;;;;28.81;48.84;98746.81;4716345;30;20365;-81
2022/07/27 07:36:50;;;;;;;;;;;;;;;29.01;48.30;98743.94;4717831;30;19937;-82
2022/07/27 07:39:17;;;;;;;;;;;;;;;29.09;47.80;98749.28;4718317;30;20041;-82
2022/07/27 07:41:44;;;;;;;;;;;;;;;29.15;48.25;98738.63;4717965;30;20458;-79
2022/07/27 07:44:11;;;;;;;;;;;;;;;29.32;47.71;98754.75;4717303;30;20250;-80
2022/07/27 07:46:37;;;;;;;;;;;;;;;29.36;47.84;98752.81;4717850;30;20002;-82
2022/07/27 07:49:09;;;;;;;;;;;;;;;29.36;47.93;98746.47;4717035;30;20387;-82
2022/07/27 07:51:37;;;;;;;;;;;;;;;29.58;47.09;98748.34;4716555;30;20092;-81
2022/07/27 07:54:04;;;;;;;;;;;;;;;29.74;46.32;98748.16;4716085;30;20364;-81
2022/07/27 07:56:31;;;;;;;;;;;;;;;29.88;46.04;98747.56;4717409;30;19930;-80
2022/07/27 07:59:11;;;;;;;;;;;;;;;29.90;45.41;98747.16;4712559;30;19981;-82
2022/07/27 08:01:39;;;;;;;;;;;;;;;29.92;45.61;98751.16;4717439;30;20221;-81
2022/07/27 08:04:06;;;;;;;;;;;;;;;30.17;45.16;98751.41;4715536;30;20280;-83
2022/07/27 08:06:33;;;;;;;;;;;;;;;30.39;44.81;98752.47;4716947;30;19930;-81
2022/07/27 08:09:00;;;;;;;;;;;;;;;30.61;44.16;98753.47;4716880;30;20017;-82
2022/07/27 08:11:27;;;;;;;;;;;;;;;30.59;44.12;98753.06;4715706;30;19930;-82
2022/07/27 08:13:54;;;;;;;;;;;;;;;30.75;44.37;98749.19;4715575;30;19931;-83
2022/07/27 08:16:23;;;;;;;;;;;;;;;30.83;43.74;98745.31;4716745;30;20200;-81
2022/07/27 08:18:50;;;;;;;;;;;;;;;30.88;44.07;98748.53;4715768;30;19930;-81
2022/07/27 08:21:17;;;;;;;;;;;;;;;30.73;42.61;98744.00;4716492;30;19930;-82
2022/07/27 08:23:44;;;;;;;;;;;;;;;30.78;42.62;98752.00;4716639;30;19965;-80
2022/07/27 08:26:11;;;;;;;;;;;;;;;30.99;41.75;98743.03;4715713;30;19931;-81
2022/07/27 08:28:38;;;;;;;;;;;;;;;31.27;41.11;98736.84;4717260;30;20425;-82
2022/07/27 08:31:05;;;;;;;;;;;;;;;31.37;40.22;98740.84;4715497;30;19939;-81
2022/07/27 08:33:41;;;;;;;;;;;;;;;31.67;40.36;98734.25;4715104;30;19974;-80
2022/07/27 08:36:08;;;;;;;;;;;;;;;32.02;40.11;98736.38;4716153;30;20026;-81
2022/07/27 08:38:50;;;;;;;;;;;;;;;32.07;39.32;98736.00;4715378;30;20446;-83
2022/07/27 08:41:16;;;;;;;;;;;;;;;31.72;40.03;98740.25;4716077;30;19931;-83
2022/07/27 08:43:46;;;;;;;;;;;;;;;31.90;39.60;98733.91;4716488;30;20391;-81
2022/07/27 08:46:13;;;;;;;;;;;;;;;32.41;38.99;98735.66;4700523;30;20395;-81
2022/07/27 08:48:41;;;;;;;;;;;;;;;32.77;38.95;98736.47;4700244;30;20041;-81
2022/07/27 08:51:08;;;;;;;;;;;;;;;33.13;39.24;98741.25;4715053;30;19930;-81
2022/07/27 08:53:35;;;;;;;;;;;;;;;33.33;38.95;98741.59;4715935;30;19934;-81
2022/07/27 08:56:20;;;;;;;;;;;;;;;33.25;37.16;98749.22;4716162;30;19931;-82
2022/07/27 08:58:47;;;;;;;;;;;;;;;32.28;38.89;98749.19;4714306;30;19931;-81
2022/07/27 09:01:14;;;;;;;;;;;;;;;32.07;40.11;98738.00;4714706;30;19965;-82
2022/07/27 09:03:41;;;;;;;;;;;;;;;32.71;39.21;98743.66;4715854;30;20407;-82
2022/07/27 09:06:08;;;;;;;;;;;;;;;33.22;38.56;98745.22;4715345;30;19937;-81
2022/07/27 09:08:37;;;;;;;;;;;;;;;33.79;36.83;98729.44;4714501;30;19988;-82
2022/07/27 09:11:11;;;;;;;;;;;;;;;33.87;36.79;98734.59;4714950;30;20378;-82
2022/07/27 09:13:41;;;;;;;;;;;;;;;34.41;36.38;98737.09;4715951;30;20288;-83
2022/07/27 09:16:08;;;;;;;;;;;;;;;34.01;36.85;98733.72;4715342;30;19965;-83
2022/07/27 09:18:44;;;;;;;;;;;;;;;34.70;36.74;98739.69;4715746;30;19989;-82
2022/07/27 09:21:16;;;;;;;;;;;;;;;35.23;35.75;98741.19;4714388;30;19931;-81
2022/07/27 09:23:53;;;;;;;;;;;;;;;35.68;35.03;98746.72;4715787;30;19989;-82
2022/07/27 09:26:20;;;;;;;;;;;;;;;35.80;33.48;98734.94;4715620;30;19997;-82
2022/07/27 09:28:58;;;;;;;;;;;;;;;35.76;32.48;98736.19;4715901;30;19969;-82
2022/07/27 09:31:28;;;;;;;;;;;;;;;35.91;32.14;98742.41;4715318;30;20403;-81
2022/07/27 09:33:56;;;;;;;;;;;;;;;36.04;31.62;98743.41;4714639;30;19982;-81
2022/07/27 09:36:24;;;;;;;;;;;;;;;35.86;31.94;98745.69;4715587;30;19938;-81
2022/07/27 09:38:52;;;;;;;;;;;;;;;35.53;31.98;98754.47;4714484;30;19980;-82
2022/07/27 09:41:25;;;;;;;;;;;;;;;35.56;32.12;98738.81;4715320;30;20437;-81
2022/07/27 09:43:53;;;;;;;;;;;;;;;35.98;31.96;98731.06;4715478;30;19931;-81
2022/07/27 09:46:41;;;;;;;;;;;;;;;36.50;31.56;98744.75;4715512;30;20335;-82
2022/07/27 09:49:34;;;;;;;;;;;;;;;36.62;30.95;98738.56;4698297;30;19938;-81
2022/07/27 09:52:01;;;;;;;;;;;;;;;36.61;31.32;98738.97;4716116;30;20034;-82
2022/07/27 09:54:49;;;;;;;;;;;;;;;36.97;31.51;98739.16;4714454;30;19931;-82
2022/07/27 09:57:52;;;;;;;;;;;;;;;36.37;32.72;98740.97;4715171;30;19930;-82
2022/07/27 10:00:19;;;;;;;;;;;;;;;36.94;31.56;98737.19;4714930;30;19930;-81
2022/07/27 10:02:46;;;;;;;;;;;;;;;37.09;31.74;98735.72;4719015;30;19985;-82
2022/07/27 10:05:16;;;;;;;;;;;;;;;37.47;30.90;98748.69;4718403;30;19974;-84
2022/07/27 10:07:44;;;;;;;;;;;;;;;37.57;30.10;98750.50;4718866;30;19937;-80
2022/07/27 10:10:11;;;;;;;;;;;;;;;37.94;29.28;98740.09;4718407;30;19931;-82
2022/07/27 10:12:44;;;;;;;;;;;;;;;38.28;28.75;98725.63;4717685;30;19930;-83
2022/07/27 10:15:19;;;;;;;;;;;;;;;37.82;28.94;98733.09;4718459;30;20021;-82
2022/07/27 10:17:46;;;;;;;;;;;;;;;37.55;29.14;98732.47;4703336;30;19947;-81
2022/07/27 10:20:23;;;;;;;;;;;;;;;37.84;29.16;98727.03;4717053;30;19930;-83
2022/07/27 10:22:55;;;;;;;;;;;;;;;37.88;28.99;98739.00;4717398;30;20029;-82
2022/07/27 10:25:23;;;;;;;;;;;;;;;38.29;28.22;98735.69;4702294;30;19930;-83
2022/07/27 10:28:09;;;;;;;;;;;;;;;38.48;28.49;98736.84;4717339;30;19935;-81
2022/07/27 10:30:36;;;;;;;;;;;;;;;38.62;28.22;98729.31;4717210;30;19946;-80
2022/07/27 10:33:14;;;;;;;;;;;;;;;38.06;28.88;98721.72;4718445;30;19935;-83
2022/07/27 10:35:43;;;;;;;;;;;;;;;38.41;29.19;98733.38;4717203;30;20033;-82
2022/07/27 10:38:17;;;;;;;;;;;;;;;38.69;28.52;98738.38;4716891;30;19989;-82
2022/07/27 10:40:48;;;;;;;;;;;;;;;39.05;27.61;98731.81;4718677;30;19989;-83
2022/07/27 10:43:19;;;;;;;;;;;;;;;39.06;27.67;98733.38;4717050;30;19937;-81
2022/07/27 10:45:47;;;;;;;;;;;;;;;39.15;27.42;98727.13;4717998;30;19935;-81
2022/07/27 10:48:36;;;;;;;;;;;;;;;37.92;28.77;98725.66;4702301;30;19935;-82
2022/07/27 10:51:04;;;;;;;;;;;;;;;36.86;30.09;98732.94;4730352;30;20407;-81
2022/07/27 10:53:32;;;;;;;;;;;;;;;37.33;29.40;98727.25;4716526;30;20399;-82
2022/07/27 10:56:19;;;;;;;;;;;;;;;36.22;30.31;98710.28;4718093;30;19930;-82
2022/07/27 10:58:47;;;;;;;;;;;;;;;35.49;31.44;98730.47;4714566;30;20319;-82
2022/07/27 11:01:17;;;;;;;;;;;;;;;36.44;30.57;98721.19;4717084;30;20319;-82
2022/07/27 11:03:49;;;;;;;;;;;;;;;37.37;29.20;98721.56;4718095;30;20055;-81
2022/07/27 11:06:18;;;;;;;;;;;;;;;37.93;28.70;98719.59;4717579;30;20284;-82
2022/07/27 11:08:59;;;;;;;;;;;;;;;37.68;28.32;98717.31;4718037;30;19953;-82
2022/07/27 11:11:47;;;;;;;;;;;;;;;36.31;30.25;98726.59;4717446;30;19942;-81
2022/07/27 11:14:14;;;;;;;;;;;;;;;37.18;29.33;98714.72;4717528;30;20399;-82
2022/07/27 11:16:45;;;;;;;;;;;;;;;37.17;29.25;98711.09;4702648;30;19930;-82
2022/07/27 11:19:53;;;;;;;;;;;;;;;37.03;29.82;98714.94;4717569;30;19965;-81
2022/07/27 11:22:34;;;;;;;;;;;;;;;35.65;30.76;98705.44;4717501;30;19931;-81
2022/07/27 11:25:22;;;;;;;;;;;;;;;34.68;32.80;98708.47;4716283;30;19934;-83
2022/07/27 11:27:49;;;;;;;;;;;;;;;34.30;33.36;98702.75;4717467;30;19931;-81
2022/07/27 11:30:26;;;;;;;;;;;;;;;34.72;32.66;98709.25;4716049;30;19942;-82
2022/07/27 11:32:53;;;;;;;;;;;;;;;34.42;32.78;98704.28;4717340;30;19930;-81
2022/07/27 11:35:20;;;;;;;;;;;;;;;33.71;33.70;98711.91;4715670;30;19930;-82
2022/07/27 11:37:57;;;;;;;;;;;;;;;32.96;35.05;98709.31;4717268;30;19931;-82
2022/07/27 11:40:24;;;;;;;;;;;;;;;32.11;37.69;98720.06;4717095;30;19931;-81
2022/07/27 11:43:12;;;;;;;;;;;;;;;31.19;38.88;98712.88;4716894;30;19941;-82
2022/07/27 11:45:41;;;;;;;;;;;;;;;31.03;39.11;98715.97;4716279;30;19930;-81
2022/07/27 11:48:09;;;;;;;;;;;;;;;30.54;40.90;98722.78;4716070;30;19988;-82
2022/07/27 11:50:55;;;;;;;;;;;;;;;29.13;50.25;98738.22;4716197;30;19930;-81
2022/07/27 11:53:22;;;;;;;;;;;;;;;25.96;60.90;98725.59;4715864;30;19930;-81
2022/07/27 11:55:49;;;;;;;;;;;;;;;24.38;62.08;98709.72;4716263;30;19931;-81
2022/07/27 11:58:19;;;;;;;;;;;;;;;23.97;60.90;98711.50;4715743;30;19931;-82
2022/07/27 12:00:49;;;;;;;;;;;;;;;24.57;57.34;98711.97;4717412;30;19931;-82
2022/07/27 12:03:19;;;;;;;;;;;;;;;25.21;54.47;98707.66;4701592;30;19930;-81
2022/07/27 12:05:50;;;;;;;;;;;;;;;25.60;53.92;98700.50;4701734;30;19988;-82
2022/07/27 12:08:20;;;;;;;;;;;;;;;25.98;53.82;98703.91;4715743;30;20480;-81
2022/07/27 12:11:00;;;;;;;;;;;;;;;26.45;53.39;98697.63;4715236;30;20426;-82
2022/07/27 12:13:34;;;;;;;;;;;;;;;26.53;53.71;98693.88;4717207;30;19979;-82
2022/07/27 12:16:01;;;;;;;;;;;;;;;26.59;54.84;98695.25;4717019;30;19930;-82
2022/07/27 12:18:41;;;;;;;;;;;;;;;26.24;57.05;98693.16;4716884;30;19931;-84
2022/07/27 12:21:18;;;;;;;;;;;;;;;24.91;64.57;98694.09;4717037;30;19931;-83
2022/07/27 12:23:51;;;;;;;;;;;;;;;24.12;70.02;98697.06;4715258;30;19969;-82
2022/07/27 12:26:23;;;;;;;;;;;;;;;23.94;68.84;98687.38;4716576;30;19934;-82
2022/07/27 12:29:08;;;;;;;;;;;;;;;24.18;68.28;98676.41;4715437;30;19934;-81
2022/07/27 12:31:38;;;;;;;;;;;;;;;24.90;65.97;98680.66;4716146;30;19954;-82
2022/07/27 12:34:08;;;;;;;;;;;;;;;25.48;65.97;98684.78;4700900;30;20459;-82
2022/07/27 12:36:38;;;;;;;;;;;;;;;26.02;65.21;98674.41;4714937;30;20407;-81
2022/07/27 12:39:07;;;;;;;;;;;;;;;26.30;64.74;98674.31;4700609;30;19935;-82
2022/07/27 12:41:38;;;;;;;;;;;;;;;26.36;64.64;98668.19;4716211;30;19935;-82
2022/07/27 12:44:12;;;;;;;;;;;;;;;26.33;65.32;98663.38;4716173;30;19995;-82
2022/07/27 12:47:00;;;;;;;;;;;;;;;26.28;66.76;98660.03;4716395;30;19931;-81
2022/07/27 12:49:36;;;;;;;;;;;;;;;26.55;66.69;98650.06;4715961;30;19965;-80
2022/07/27 12:52:11;;;;;;;;;;;;;;;29.12;60.89;98651.28;4716068;30;19981;-81
2022/07/27 12:54:38;;;;;;;;;;;;;;;30.87;58.35;98654.22;4715978;30;19981;-82
2022/07/27 12:57:05;;;;;;;;;;;;;;;31.36;57.73;98644.47;4716047;30;20013;-81
2022/07/27 12:59:32;;;;;;;;;;;;;;;31.25;57.74;98647.22;4715809;30;19958;-82
2022/07/27 13:01:59;;;;;;;;;;;;;;;30.55;57.74;98640.03;4715896;30;20585;-81